Time;durP1;ratioP1;P1;durP2;ratioP2;P2;SDS_P1;SDS_P2;PMS_P1;PMS_P2;Temp;Humidity;BMP_temperature;BMP_pressure;BME280_temperature;BME280_humidity;BME280_pressure;Samples;Min_cycle;Max_cycle;Signal;HPM_P1;HPM_P2
2022/04/29 00:02:07;;;;;;;39.67;12.07;;;;;;;;;;5034487;28;20216;-57
2022/04/29 00:04:33;;;;;;;34.55;12.43;;;;;;;;;;5029438;28;20017;-58
2022/04/29 00:06:59;;;;;;;38.15;12.40;;;;;;;;;;5034289;28;20049;-58
2022/04/29 00:09:24;;;;;;;34.05;12.30;;;;;;;;;;5032897;28;20073;-58
2022/04/29 00:11:51;;;;;;;48.00;12.30;;;;;;;;;;5033605;28;20061;-58
2022/04/29 00:14:17;;;;;;;47.17;13.30;;;;;;;;;;5013332;28;20029;-58
2022/04/29 00:16:43;;;;;;;37.00;13.50;;;;;;;;;;5036419;28;20028;-58
2022/04/29 00:19:08;;;;;;;49.25;13.60;;;;;;;;;;5032953;28;20036;-58
2022/04/29 00:21:34;;;;;;;43.45;13.18;;;;;;;;;;5039573;28;20522;-58
2022/04/29 00:23:59;;;;;;;41.47;13.70;;;;;;;;;;5038543;28;20096;-58
2022/04/29 00:26:25;;;;;;;44.55;13.10;;;;;;;;;;5039551;28;20043;-58
2022/04/29 00:28:50;;;;;;;37.83;14.65;;;;;;;;;;5036417;28;20052;-58
2022/04/29 00:31:16;;;;;;;45.92;13.80;;;;;;;;;;5033024;28;20041;-57
2022/04/29 00:33:41;;;;;;;36.20;14.00;;;;;;;;;;5036738;28;20331;-58
2022/04/29 00:36:07;;;;;;;43.15;14.48;;;;;;;;;;5036745;28;20040;-58
2022/04/29 00:38:33;;;;;;;36.58;13.63;;;;;;;;;;5039388;28;20454;-58
2022/04/29 00:40:59;;;;;;;45.42;13.00;;;;;;;;;;5018272;28;20132;-58
2022/04/29 00:43:24;;;;;;;40.13;13.23;;;;;;;;;;5038523;28;20111;-58
2022/04/29 00:45:51;;;;;;;46.50;14.55;;;;;;;;;;5036514;28;20040;-57
2022/04/29 00:48:17;;;;;;;41.53;14.20;;;;;;;;;;5037598;28;20033;-57
2022/04/29 00:50:43;;;;;;;40.15;12.98;;;;;;;;;;5034031;28;20036;-58
2022/04/29 00:53:12;;;;;;;35.97;13.00;;;;;;;;;;5037909;28;20047;-58
2022/04/29 00:55:39;;;;;;;49.67;13.98;;;;;;;;;;5038609;28;20099;-58
2022/04/29 00:58:07;;;;;;;41.53;13.13;;;;;;;;;;5037707;28;20048;-57
2022/04/29 01:00:34;;;;;;;36.83;13.25;;;;;;;;;;5036710;28;20049;-58
2022/04/29 01:03:00;;;;;;;44.13;13.43;;;;;;;;;;5032729;28;20456;-58
2022/04/29 01:05:26;;;;;;;38.95;12.57;;;;;;;;;;5034090;28;20128;-58
2022/04/29 01:07:52;;;;;;;47.47;13.85;;;;;;;;;;5031287;28;20028;-58
2022/04/29 01:10:23;;;;;;;37.35;13.25;;;;;;;;;;5031683;28;20418;-58
2022/04/29 01:12:53;;;;;;;49.53;14.10;;;;;;;;;;5031811;28;20524;-58
2022/04/29 01:15:19;;;;;;;45.25;13.23;;;;;;;;;;5039143;28;20123;-58
2022/04/29 01:17:51;;;;;;;37.05;11.93;;;;;;;;;;5039294;28;20164;-58
2022/04/29 01:20:20;;;;;;;44.92;12.65;;;;;;;;;;5038817;28;20048;-58
2022/04/29 01:22:45;;;;;;;49.08;13.50;;;;;;;;;;5037913;28;20037;-58
2022/04/29 01:25:12;;;;;;;35.58;12.98;;;;;;;;;;5039785;28;20056;-58
2022/04/29 01:27:38;;;;;;;27.33;11.45;;;;;;;;;;5030965;28;20037;-58
2022/04/29 01:30:10;;;;;;;47.53;13.35;;;;;;;;;;5034702;28;20020;-58
2022/04/29 01:32:37;;;;;;;32.50;11.05;;;;;;;;;;5032478;28;20308;-58
2022/04/29 01:35:03;;;;;;;34.30;12.00;;;;;;;;;;5034427;28;20030;-58
2022/04/29 01:37:30;;;;;;;41.00;11.60;;;;;;;;;;5020472;28;20120;-58
2022/04/29 01:39:55;;;;;;;40.63;11.68;;;;;;;;;;5030334;28;20041;-58
2022/04/29 01:42:21;;;;;;;34.40;11.50;;;;;;;;;;5037629;28;20231;-57
2022/04/29 01:44:46;;;;;;;42.17;11.55;;;;;;;;;;5034722;28;20498;-58
2022/04/29 01:47:13;;;;;;;42.83;11.98;;;;;;;;;;5036746;28;20033;-58
2022/04/29 01:49:38;;;;;;;28.27;10.88;;;;;;;;;;5035178;28;20031;-58
2022/04/29 01:52:05;;;;;;;26.17;9.55;;;;;;;;;;5031638;28;20029;-58
2022/04/29 01:54:30;;;;;;;23.52;9.32;;;;;;;;;;5039420;28;20128;-58
2022/04/29 01:56:56;;;;;;;23.50;10.80;;;;;;;;;;5021889;28;20131;-58
2022/04/29 01:59:22;;;;;;;27.95;10.50;;;;;;;;;;5033085;28;20448;-59
2022/04/29 02:01:48;;;;;;;29.23;10.15;;;;;;;;;;5032339;28;20091;-57
2022/04/29 02:04:15;;;;;;;30.38;10.18;;;;;;;;;;5034645;28;20044;-57
2022/04/29 02:06:41;;;;;;;34.65;11.02;;;;;;;;;;5040336;28;20033;-58
2022/04/29 02:09:07;;;;;;;26.33;10.32;;;;;;;;;;5035715;28;20044;-57
2022/04/29 02:11:34;;;;;;;36.47;10.38;;;;;;;;;;5031938;28;20128;-57
2022/04/29 02:14:00;;;;;;;33.20;9.93;;;;;;;;;;5033215;28;20404;-57
2022/04/29 02:16:25;;;;;;;39.10;10.30;;;;;;;;;;5031434;28;20025;-58
2022/04/29 02:18:51;;;;;;;41.10;10.63;;;;;;;;;;5036198;28;20036;-57
2022/04/29 02:21:17;;;;;;;23.23;10.07;;;;;;;;;;5033327;28;20494;-58
2022/04/29 02:23:42;;;;;;;29.02;9.27;;;;;;;;;;5038279;28;20494;-58
2022/04/29 02:26:08;;;;;;;30.40;11.07;;;;;;;;;;5032993;28;20038;-58
2022/04/29 02:28:34;;;;;;;39.78;11.40;;;;;;;;;;5035896;28;20032;-58
2022/04/29 02:31:00;;;;;;;30.83;9.55;;;;;;;;;;5018904;28;20033;-57
2022/04/29 02:33:27;;;;;;;28.90;9.77;;;;;;;;;;5032008;28;20045;-58
2022/04/29 02:35:53;;;;;;;28.23;10.70;;;;;;;;;;5036745;28;20128;-58
2022/04/29 02:38:18;;;;;;;22.45;9.77;;;;;;;;;;5029395;28;20098;-58
2022/04/29 02:40:44;;;;;;;23.13;10.02;;;;;;;;;;5035545;28;20137;-58
2022/04/29 02:43:10;;;;;;;33.63;10.65;;;;;;;;;;5034929;28;20025;-58
2022/04/29 02:45:35;;;;;;;25.92;9.20;;;;;;;;;;5033751;28;20025;-57
2022/04/29 02:48:01;;;;;;;30.70;10.65;;;;;;;;;;5035868;28;20063;-58
2022/04/29 02:50:26;;;;;;;28.27;10.60;;;;;;;;;;5033967;28;20472;-58
2022/04/29 02:52:51;;;;;;;30.77;10.50;;;;;;;;;;5032305;28;20033;-58
2022/04/29 02:55:18;;;;;;;38.45;11.10;;;;;;;;;;5035019;28;20025;-58
2022/04/29 02:57:44;;;;;;;27.25;10.65;;;;;;;;;;5034311;28;20090;-58
2022/04/29 03:00:10;;;;;;;35.10;10.27;;;;;;;;;;5035745;28;20033;-59
2022/04/29 03:02:36;;;;;;;25.65;10.25;;;;;;;;;;5032381;28;20052;-58
2022/04/29 03:05:04;;;;;;;30.85;10.57;;;;;;;;;;5041716;28;20079;-59
2022/04/29 03:07:29;;;;;;;32.58;10.68;;;;;;;;;;5031952;28;20056;-58
2022/04/29 03:09:55;;;;;;;29.88;9.93;;;;;;;;;;5037998;28;20071;-58
2022/04/29 03:12:23;;;;;;;26.50;10.88;;;;;;;;;;5040845;28;20099;-59
2022/04/29 03:14:48;;;;;;;34.60;10.55;;;;;;;;;;5039169;28;20448;-58
2022/04/29 03:20:01;;;;;;;24.08;10.45;;;;;;;;;;5034889;28;20047;-58
2022/04/29 03:22:27;;;;;;;36.75;11.00;;;;;;;;;;5038759;28;20029;-58
2022/04/29 03:24:53;;;;;;;30.17;10.75;;;;;;;;;;5035098;28;20017;-58
2022/04/29 03:27:19;;;;;;;33.70;10.77;;;;;;;;;;5031381;28;20030;-58
2022/04/29 03:29:45;;;;;;;27.08;8.93;;;;;;;;;;5036901;28;20060;-58
2022/04/29 03:32:10;;;;;;;29.85;10.77;;;;;;;;;;5034542;28;20053;-58
2022/04/29 03:34:36;;;;;;;25.17;9.85;;;;;;;;;;5033907;28;20035;-58
2022/04/29 03:37:01;;;;;;;30.13;10.60;;;;;;;;;;5032598;28;20029;-58
2022/04/29 03:39:26;;;;;;;31.20;9.38;;;;;;;;;;5019195;28;20105;-59
2022/04/29 03:41:52;;;;;;;27.30;10.35;;;;;;;;;;5033938;28;20104;-59
2022/04/29 03:44:19;;;;;;;42.00;10.45;;;;;;;;;;5030872;28;20029;-58
2022/04/29 03:46:45;;;;;;;32.30;9.88;;;;;;;;;;5029764;28;20033;-58
2022/04/29 03:51:54;;;;;;;31.95;10.73;;;;;;;;;;5032496;28;20112;-58
2022/04/29 03:54:20;;;;;;;33.03;10.77;;;;;;;;;;5018153;28;20116;-58
2022/04/29 03:56:46;;;;;;;29.33;10.38;;;;;;;;;;5040001;28;20028;-59
2022/04/29 03:59:12;;;;;;;33.70;11.15;;;;;;;;;;5039093;28;20467;-58
2022/04/29 04:01:37;;;;;;;29.33;10.13;;;;;;;;;;5034078;28;20029;-58
2022/04/29 04:04:03;;;;;;;29.17;10.60;;;;;;;;;;5041262;28;20139;-58
2022/04/29 04:09:13;;;;;;;25.95;10.65;;;;;;;;;;5039006;28;21520;-58
2022/04/29 04:11:39;;;;;;;19.27;8.95;;;;;;;;;;5017322;28;20048;-58
2022/04/29 04:14:04;;;;;;;34.67;10.32;;;;;;;;;;5041041;28;20736;-63
2022/04/29 04:16:30;;;;;;;38.33;10.95;;;;;;;;;;5036470;28;20399;-57
2022/04/29 04:18:55;;;;;;;29.48;9.40;;;;;;;;;;5037586;28;20407;-58
2022/04/29 04:21:21;;;;;;;25.75;9.48;;;;;;;;;;5034611;28;20065;-59
2022/04/29 04:23:47;;;;;;;25.48;9.20;;;;;;;;;;5033835;28;20491;-58
2022/04/29 04:26:12;;;;;;;32.67;10.63;;;;;;;;;;5036670;28;20495;-59
2022/04/29 04:28:38;;;;;;;51.83;12.40;;;;;;;;;;5033824;28;20036;-59
2022/04/29 04:31:03;;;;;;;32.78;10.63;;;;;;;;;;5036354;28;20120;-59
2022/04/29 04:33:29;;;;;;;30.48;10.65;;;;;;;;;;5044982;28;20068;-58
2022/04/29 04:35:54;;;;;;;34.60;10.77;;;;;;;;;;5038547;28;20033;-58
2022/04/29 04:38:20;;;;;;;37.63;11.15;;;;;;;;;;5036127;28;20045;-58
2022/04/29 04:40:47;;;;;;;26.98;10.07;;;;;;;;;;5018304;28;20029;-58
2022/04/29 04:43:12;;;;;;;38.22;9.38;;;;;;;;;;5036774;28;20532;-58
2022/04/29 04:45:38;;;;;;;34.85;10.30;;;;;;;;;;5035276;28;20034;-58
2022/04/29 04:48:04;;;;;;;26.70;11.57;;;;;;;;;;5031538;28;20028;-58
2022/04/29 04:50:29;;;;;;;37.10;10.32;;;;;;;;;;5035289;28;20584;-58
2022/04/29 04:52:55;;;;;;;27.73;10.40;;;;;;;;;;5036430;28;20499;-58
2022/04/29 04:55:20;;;;;;;29.65;10.35;;;;;;;;;;5037735;28;20013;-58
2022/04/29 04:57:46;;;;;;;30.98;10.07;;;;;;;;;;5037360;28;20038;-58
2022/04/29 05:00:12;;;;;;;24.08;9.48;;;;;;;;;;5036639;28;20068;-58
2022/04/29 05:02:41;;;;;;;33.35;10.35;;;;;;;;;;5034554;28;20499;-58
2022/04/29 05:05:08;;;;;;;26.73;9.68;;;;;;;;;;5031942;28;20120;-57
2022/04/29 05:07:34;;;;;;;28.02;10.07;;;;;;;;;;5037368;28;20091;-58
2022/04/29 05:09:59;;;;;;;37.65;11.43;;;;;;;;;;5041012;28;20044;-58
2022/04/29 05:12:25;;;;;;;27.48;10.15;;;;;;;;;;5019568;28;20037;-58
2022/04/29 05:14:50;;;;;;;33.70;10.80;;;;;;;;;;5036385;28;20029;-58
2022/04/29 05:17:15;;;;;;;21.85;9.63;;;;;;;;;;5034472;28;20298;-58
2022/04/29 05:19:41;;;;;;;24.35;9.70;;;;;;;;;;5042364;28;20033;-59
2022/04/29 05:22:07;;;;;;;36.58;10.95;;;;;;;;;;5037963;28;20056;-58
2022/04/29 05:24:32;;;;;;;26.70;9.55;;;;;;;;;;5033008;28;20427;-58
2022/04/29 05:26:58;;;;;;;31.13;10.63;;;;;;;;;;5033080;28;20566;-58
2022/04/29 05:29:23;;;;;;;24.55;9.55;;;;;;;;;;5037757;28;20036;-59
2022/04/29 05:31:49;;;;;;;28.60;9.52;;;;;;;;;;5037507;28;20112;-58
2022/04/29 05:34:15;;;;;;;35.78;10.30;;;;;;;;;;5032033;28;20045;-58
2022/04/29 05:36:41;;;;;;;29.17;9.35;;;;;;;;;;5037709;28;20017;-58
2022/04/29 05:44:36;;;;;;;30.75;9.77;;;;;;;;;;5039568;28;20028;-58
2022/04/29 05:47:02;;;;;;;31.25;10.90;;;;;;;;;;5032483;28;20044;-58
2022/04/29 05:49:27;;;;;;;29.65;10.80;;;;;;;;;;5043706;28;20086;-59
2022/04/29 05:51:53;;;;;;;33.53;10.88;;;;;;;;;;5036854;28;20090;-59
2022/04/29 05:54:18;;;;;;;23.45;10.90;;;;;;;;;;5038871;28;20508;-58
2022/04/29 05:56:44;;;;;;;31.90;10.50;;;;;;;;;;5033991;28;20095;-59
2022/04/29 05:59:09;;;;;;;30.92;10.57;;;;;;;;;;5035316;28;20041;-58
2022/04/29 06:01:35;;;;;;;27.98;10.05;;;;;;;;;;5031182;28;20029;-58
2022/04/29 06:04:00;;;;;;;29.30;9.52;;;;;;;;;;5037814;28;20064;-58
2022/04/29 06:06:26;;;;;;;26.63;10.05;;;;;;;;;;5035533;28;20056;-58
2022/04/29 06:08:51;;;;;;;37.60;11.15;;;;;;;;;;5039776;28;20051;-58
2022/04/29 06:11:17;;;;;;;35.75;10.75;;;;;;;;;;5035062;28;20291;-58
2022/04/29 06:13:43;;;;;;;29.75;12.20;;;;;;;;;;5021062;28;20044;-59
2022/04/29 06:16:10;;;;;;;46.58;11.48;;;;;;;;;;5038756;28;20029;-57
2022/04/29 06:18:36;;;;;;;38.17;12.07;;;;;;;;;;5033281;28;20029;-57
2022/04/29 06:21:02;;;;;;;39.53;11.27;;;;;;;;;;5039096;28;20427;-57
2022/04/29 06:23:27;;;;;;;28.65;10.70;;;;;;;;;;5035292;28;20037;-57
2022/04/29 06:25:53;;;;;;;34.05;11.30;;;;;;;;;;5033906;28;20408;-57
2022/04/29 06:28:19;;;;;;;28.65;10.95;;;;;;;;;;5035938;28;20321;-58
2022/04/29 06:30:44;;;;;;;36.15;11.02;;;;;;;;;;5034394;28;20033;-58
2022/04/29 06:33:10;;;;;;;33.53;11.55;;;;;;;;;;5033103;28;20055;-57
2022/04/29 06:35:39;;;;;;;27.08;10.98;;;;;;;;;;5034186;28;20067;-57
2022/04/29 06:38:05;;;;;;;25.55;11.40;;;;;;;;;;5036148;28;20477;-57
2022/04/29 06:40:30;;;;;;;49.45;13.32;;;;;;;;;;5036182;28;20102;-57
2022/04/29 06:42:56;;;;;;;44.17;11.60;;;;;;;;;;5032344;28;20036;-57
2022/04/29 06:45:21;;;;;;;44.13;12.20;;;;;;;;;;5035906;28;20020;-57
2022/04/29 06:47:47;;;;;;;33.97;11.25;;;;;;;;;;5036612;28;20086;-57
2022/04/29 06:50:12;;;;;;;39.47;10.88;;;;;;;;;;5034165;28;20574;-57
2022/04/29 06:52:38;;;;;;;38.03;12.40;;;;;;;;;;5038149;28;20029;-57
2022/04/29 06:55:04;;;;;;;36.22;12.15;;;;;;;;;;5038043;28;20049;-57
2022/04/29 06:57:30;;;;;;;34.28;11.80;;;;;;;;;;5032712;28;20033;-58
2022/04/29 06:59:57;;;;;;;39.38;12.02;;;;;;;;;;5037658;28;20546;-57
2022/04/29 07:02:22;;;;;;;42.83;11.65;;;;;;;;;;5034652;28;20086;-57
2022/04/29 07:04:48;;;;;;;36.47;15.43;;;;;;;;;;5039159;28;20037;-57
2022/04/29 07:07:14;;;;;;;41.25;14.40;;;;;;;;;;5030882;28;20124;-57
2022/04/29 07:09:40;;;;;;;35.92;13.10;;;;;;;;;;5043086;28;20458;-57
2022/04/29 07:12:10;;;;;;;34.33;14.15;;;;;;;;;;5048200;22;20033;-86
2022/04/29 07:14:36;;;;;;;31.60;12.80;;;;;;;;;;5027846;28;20048;-80
2022/04/29 07:17:01;;;;;;;34.33;11.50;;;;;;;;;;5003215;28;20496;-80
2022/04/29 07:19:27;;;;;;;34.28;12.93;;;;;;;;;;5023532;28;20122;-80
2022/04/29 07:21:52;;;;;;;43.53;12.60;;;;;;;;;;5026825;28;20036;-80
2022/04/29 07:24:18;;;;;;;49.83;12.95;;;;;;;;;;5038908;28;20045;-81
2022/04/29 07:26:44;;;;;;;35.90;13.35;;;;;;;;;;5023689;28;20120;-80
2022/04/29 07:29:10;;;;;;;31.55;12.10;;;;;;;;;;5023273;28;20803;-80
2022/04/29 07:31:36;;;;;;;39.95;12.30;;;;;;;;;;5036159;28;20510;-80
2022/04/29 07:34:01;;;;;;;43.72;12.98;;;;;;;;;;5003134;28;20042;-80
2022/04/29 07:41:55;;;;;;;34.17;12.77;;;;;;;;;;5003268;28;20045;-80
2022/04/29 07:44:21;;;;;;;31.95;12.20;;;;;;;;;;5007970;28;20026;-80
2022/04/29 07:46:48;;;;;;;28.70;13.27;;;;;;;;;;5018065;28;20056;-80
2022/04/29 07:49:14;;;;;;;41.75;13.30;;;;;;;;;;5020562;28;20127;-79
2022/04/29 07:51:41;;;;;;;49.05;13.32;;;;;;;;;;5002163;28;20040;-79
2022/04/29 07:54:07;;;;;;;43.78;13.77;;;;;;;;;;5005268;28;20303;-80
2022/04/29 07:56:35;;;;;;;43.78;12.48;;;;;;;;;;5008345;28;20037;-79
2022/04/29 07:59:01;;;;;;;42.35;13.50;;;;;;;;;;5006083;28;20029;-80
2022/04/29 08:01:27;;;;;;;37.20;12.77;;;;;;;;;;5008327;28;20049;-81
2022/04/29 08:03:53;;;;;;;43.70;13.18;;;;;;;;;;5007075;28;20021;-80
2022/04/29 08:06:20;;;;;;;45.95;12.32;;;;;;;;;;5022829;28;20022;-81
2022/04/29 08:08:45;;;;;;;29.85;11.52;;;;;;;;;;4990863;28;20030;-81
2022/04/29 08:11:11;;;;;;;28.33;10.20;;;;;;;;;;5024463;28;20481;-80
2022/04/29 08:13:37;;;;;;;33.20;10.80;;;;;;;;;;4992141;28;20050;-80
2022/04/29 08:16:04;;;;;;;24.63;10.88;;;;;;;;;;4989377;28;20057;-81
2022/04/29 08:18:29;;;;;;;25.75;10.98;;;;;;;;;;4998771;28;20396;-80
2022/04/29 08:20:56;;;;;;;26.23;12.82;;;;;;;;;;5007783;28;20029;-80
2022/04/29 08:23:22;;;;;;;33.17;11.07;;;;;;;;;;5009162;28;20022;-80
2022/04/29 08:25:48;;;;;;;28.20;11.07;;;;;;;;;;5007483;28;20018;-80
2022/04/29 08:28:14;;;;;;;28.92;12.27;;;;;;;;;;5007855;28;20516;-80
2022/04/29 08:30:39;;;;;;;33.63;12.43;;;;;;;;;;5022044;28;20026;-80
2022/04/29 08:33:05;;;;;;;37.78;11.70;;;;;;;;;;5009319;28;20114;-81
2022/04/29 08:35:31;;;;;;;37.97;12.02;;;;;;;;;;5008913;28;20030;-80
2022/04/29 08:37:57;;;;;;;32.30;11.48;;;;;;;;;;5009029;28;20029;-80
2022/04/29 08:40:24;;;;;;;38.50;11.93;;;;;;;;;;5023673;28;20052;-80
2022/04/29 08:42:50;;;;;;;25.77;12.13;;;;;;;;;;5025992;28;20116;-76
2022/04/29 08:45:18;;;;;;;34.33;11.95;;;;;;;;;;5025189;28;20025;-76
2022/04/29 08:47:45;;;;;;;35.97;11.80;;;;;;;;;;5011958;28;20331;-77
2022/04/29 08:50:16;;;;;;;39.10;13.00;;;;;;;;;;5009824;28;20064;-76
2022/04/29 08:52:42;;;;;;;26.42;11.82;;;;;;;;;;5011013;28;20048;-76
2022/04/29 09:00:41;;;;;;;39.03;13.40;;;;;;;;;;5008533;28;20045;-77
2022/04/29 09:03:15;;;;;;;45.33;14.50;;;;;;;;;;4977264;28;20419;-76
2022/04/29 09:05:42;;;;;;;43.17;13.57;;;;;;;;;;5025789;28;20026;-76
2022/04/29 09:08:12;;;;;;;32.28;13.85;;;;;;;;;;5025960;28;20037;-76
2022/04/29 09:10:51;;;;;;;33.13;13.05;;;;;;;;;;5019423;28;20028;-76
2022/04/29 09:13:18;;;;;;;34.22;12.15;;;;;;;;;;5010787;28;20547;-80
2022/04/29 09:15:58;;;;;;;35.85;13.32;;;;;;;;;;5007596;28;20037;-80
2022/04/29 09:18:44;;;;;;;30.88;13.35;;;;;;;;;;5025186;28;20168;-80
2022/04/29 09:21:14;;;;;;;59.78;16.10;;;;;;;;;;5008455;28;20037;-80
2022/04/29 09:23:44;;;;;;;33.10;13.82;;;;;;;;;;5027478;28;20617;-80
2022/04/29 09:26:27;;;;;;;29.33;14.05;;;;;;;;;;5010933;28;20025;-80
2022/04/29 09:28:54;;;;;;;34.38;15.00;;;;;;;;;;5019365;28;20038;-80
2022/04/29 09:31:20;;;;;;;38.10;13.75;;;;;;;;;;5008076;28;20111;-80
2022/04/29 09:33:57;;;;;;;30.38;12.35;;;;;;;;;;5026928;28;21976;-80
2022/04/29 09:36:24;;;;;;;37.70;14.60;;;;;;;;;;5022977;28;20034;-80
2022/04/29 09:42:12;;;;;;;47.13;16.67;;;;;;;;;;5012050;28;20032;-80
2022/04/29 09:44:38;;;;;;;41.90;15.10;;;;;;;;;;5007090;28;20041;-80
2022/04/29 09:47:20;;;;;;;39.90;16.15;;;;;;;;;;5021290;28;20030;-80
2022/04/29 09:49:58;;;;;;;41.75;14.93;;;;;;;;;;5010533;28;20076;-79
2022/04/29 09:52:25;;;;;;;50.22;13.90;;;;;;;;;;5010804;28;20087;-80
2022/04/29 09:54:51;;;;;;;38.20;15.07;;;;;;;;;;5025205;28;20443;-81
2022/04/29 09:57:18;;;;;;;35.85;14.45;;;;;;;;;;5025317;28;20033;-80
2022/04/29 09:59:49;;;;;;;46.38;14.98;;;;;;;;;;5010215;28;20037;-80
2022/04/29 10:02:21;;;;;;;37.60;16.25;;;;;;;;;;5008157;28;20038;-81
2022/04/29 10:04:48;;;;;;;41.35;15.00;;;;;;;;;;5006166;28;20591;-80
2022/04/29 10:07:15;;;;;;;43.03;14.98;;;;;;;;;;4991958;28;20042;-80
2022/04/29 10:09:54;;;;;;;35.20;14.70;;;;;;;;;;5010945;28;20114;-80
2022/04/29 10:12:24;;;;;;;41.58;13.68;;;;;;;;;;5007002;28;20034;-80
2022/04/29 10:14:54;;;;;;;32.50;13.88;;;;;;;;;;5006452;28;20026;-81
2022/04/29 10:23:15;;;;;;;39.20;13.45;;;;;;;;;;5006626;28;20122;-80
2022/04/29 10:25:47;;;;;;;35.78;13.80;;;;;;;;;;5007576;28;20033;-80
2022/04/29 10:28:20;;;;;;;32.28;13.15;;;;;;;;;;5010625;28;20029;-79
2022/04/29 10:30:46;;;;;;;34.58;13.90;;;;;;;;;;5018397;28;20030;-80
2022/04/29 10:33:21;;;;;;;31.15;13.02;;;;;;;;;;5034720;28;20180;-81
2022/04/29 10:35:50;;;;;;;42.45;13.23;;;;;;;;;;5019877;28;20026;-80
2022/04/29 10:38:18;;;;;;;30.83;12.82;;;;;;;;;;5004762;28;20029;-80
2022/04/29 10:40:45;;;;;;;35.35;12.07;;;;;;;;;;5021691;28;20025;-81
2022/04/29 10:43:15;;;;;;;42.25;14.35;;;;;;;;;;5025097;28;20033;-80
2022/04/29 10:46:05;;;;;;;37.78;14.88;;;;;;;;;;5019078;28;20030;-80
2022/04/29 10:48:31;;;;;;;28.90;13.75;;;;;;;;;;5033803;28;20021;-80
2022/04/29 10:50:57;;;;;;;31.75;13.52;;;;;;;;;;5017450;28;20026;-80
2022/04/29 10:53:24;;;;;;;32.28;12.27;;;;;;;;;;5024417;28;20041;-80
2022/04/29 10:55:49;;;;;;;31.23;13.73;;;;;;;;;;5007909;28;20391;-80
2022/04/29 10:58:20;;;;;;;32.45;13.65;;;;;;;;;;5004874;28;20057;-80
2022/04/29 11:01:14;;;;;;;33.53;13.27;;;;;;;;;;5000370;28;20034;-80
2022/04/29 11:03:43;;;;;;;39.65;13.95;;;;;;;;;;5009807;28;20924;-80
2022/04/29 11:06:14;;;;;;;37.72;13.27;;;;;;;;;;5022936;28;20029;-81
2022/04/29 11:08:41;;;;;;;37.75;13.38;;;;;;;;;;5003897;28;20057;-80
2022/04/29 11:11:07;;;;;;;33.17;13.38;;;;;;;;;;5023687;28;20091;-80
2022/04/29 11:13:43;;;;;;;42.10;14.07;;;;;;;;;;5005582;28;20049;-76
2022/04/29 11:16:16;;;;;;;29.88;13.55;;;;;;;;;;5022427;28;20121;-76
2022/04/29 11:18:43;;;;;;;36.25;12.85;;;;;;;;;;5006691;28;20041;-77
2022/04/29 11:26:46;;;;;;;31.67;11.52;;;;;;;;;;5002562;28;20128;-76
2022/04/29 11:29:12;;;;;;;33.47;10.90;;;;;;;;;;5005542;28;20400;-77
2022/04/29 11:31:39;;;;;;;30.08;11.85;;;;;;;;;;4980637;28;20037;-77
2022/04/29 11:34:10;;;;;;;22.90;9.55;;;;;;;;;;5006559;28;20204;-76
2022/04/29 11:36:35;;;;;;;35.35;10.90;;;;;;;;;;5005247;28;20144;-77
2022/04/29 11:39:03;;;;;;;37.35;10.20;;;;;;;;;;5023611;28;20117;-76
2022/04/29 11:41:30;;;;;;;41.08;11.73;;;;;;;;;;5007904;28;21299;-76
2022/04/29 11:43:56;;;;;;;24.98;9.85;;;;;;;;;;5008376;28;20018;-76
2022/04/29 11:46:22;;;;;;;24.63;10.40;;;;;;;;;;5005630;28;20036;-76
2022/04/29 11:48:58;;;;;;;30.65;10.35;;;;;;;;;;5008715;28;20076;-76
2022/04/29 11:51:25;;;;;;;29.55;10.80;;;;;;;;;;5006642;28;20618;-76
2022/04/29 11:53:52;;;;;;;28.35;8.98;;;;;;;;;;5005235;28;20119;-76
2022/04/29 11:56:18;;;;;;;20.98;8.85;;;;;;;;;;5000532;28;20340;-77
2022/04/29 11:58:44;;;;;;;25.13;9.70;;;;;;;;;;5001188;28;20041;-77
2022/04/29 12:01:10;;;;;;;23.73;10.73;;;;;;;;;;5014317;28;20180;-77
2022/04/29 12:03:35;;;;;;;22.52;8.05;;;;;;;;;;4983613;28;20172;-77
2022/04/29 12:06:03;;;;;;;30.40;9.68;;;;;;;;;;5003217;28;20058;-76
2022/04/29 12:08:47;;;;;;;21.48;9.35;;;;;;;;;;4999406;28;20026;-77
2022/04/29 12:11:29;;;;;;;39.05;10.02;;;;;;;;;;5017068;28;20599;-77
2022/04/29 12:13:55;;;;;;;31.15;11.85;;;;;;;;;;5023367;28;20069;-76
2022/04/29 12:16:21;;;;;;;38.95;10.35;;;;;;;;;;5023534;28;20037;-77
2022/04/29 12:18:49;;;;;;;23.90;9.70;;;;;;;;;;5025605;28;20029;-77
2022/04/29 12:21:23;;;;;;;20.45;8.55;;;;;;;;;;5011482;28;20032;-76
2022/04/29 12:23:49;;;;;;;24.10;9.60;;;;;;;;;;5010358;28;20648;-76
2022/04/29 12:26:15;;;;;;;23.10;7.30;;;;;;;;;;5026243;28;20087;-76
2022/04/29 12:28:41;;;;;;;20.17;8.55;;;;;;;;;;5025169;28;20037;-76
2022/04/29 12:36:51;;;;;;;28.23;10.43;;;;;;;;;;5010029;28;20084;-76
2022/04/29 12:39:33;;;;;;;26.55;10.20;;;;;;;;;;5023490;28;20028;-77
2022/04/29 12:41:59;;;;;;;23.90;11.23;;;;;;;;;;5011797;28;20038;-78
2022/04/29 12:47:24;;;;;;;27.58;11.88;;;;;;;;;;4996476;28;20118;-77
2022/04/29 12:49:51;;;;;;;30.17;11.18;;;;;;;;;;5011325;28;20105;-76
2022/04/29 12:52:17;;;;;;;31.40;11.45;;;;;;;;;;5025508;28;20068;-77
2022/04/29 12:54:43;;;;;;;28.15;11.18;;;;;;;;;;5007004;28;20042;-76
2022/04/29 12:57:09;;;;;;;31.45;9.88;;;;;;;;;;4990537;28;20038;-75
2022/04/29 12:59:37;;;;;;;31.00;14.15;;;;;;;;;;5008566;28;20424;-76
2022/04/29 13:02:07;;;;;;;31.02;10.75;;;;;;;;;;5010104;28;20503;-76
2022/04/29 13:04:32;;;;;;;28.73;11.95;;;;;;;;;;5009512;28;20063;-77
2022/04/29 13:06:59;;;;;;;30.55;12.52;;;;;;;;;;5025891;28;20174;-76
2022/04/29 13:09:25;;;;;;;33.45;11.05;;;;;;;;;;4974345;28;20073;-75
2022/04/29 13:11:54;;;;;;;24.50;10.38;;;;;;;;;;5024914;28;20054;-74
2022/04/29 13:14:19;;;;;;;29.08;9.65;;;;;;;;;;5004828;28;20038;-74
2022/04/29 13:16:47;;;;;;;65.43;12.98;;;;;;;;;;5008272;28;20026;-75
2022/04/29 13:19:12;;;;;;;29.08;12.25;;;;;;;;;;5008685;28;20399;-75
2022/04/29 13:21:38;;;;;;;28.40;11.90;;;;;;;;;;5006751;28;20044;-75
2022/04/29 13:24:04;;;;;;;31.38;11.93;;;;;;;;;;5007166;28;20373;-77
2022/04/29 13:26:31;;;;;;;31.65;11.25;;;;;;;;;;4989233;28;20600;-75
2022/04/29 13:28:57;;;;;;;41.83;12.00;;;;;;;;;;5008846;28;20397;-75
2022/04/29 13:31:23;;;;;;;30.65;11.43;;;;;;;;;;5007849;28;20040;-74
2022/04/29 13:33:48;;;;;;;28.30;11.50;;;;;;;;;;5010089;28;20036;-75
2022/04/29 13:36:15;;;;;;;26.10;12.05;;;;;;;;;;5010262;28;20033;-74
2022/04/29 13:38:41;;;;;;;32.72;12.68;;;;;;;;;;5010050;28;20064;-75
2022/04/29 13:41:06;;;;;;;31.50;13.02;;;;;;;;;;5007515;28;20066;-74
2022/04/29 13:43:34;;;;;;;29.35;11.82;;;;;;;;;;4992479;28;20037;-74
2022/04/29 13:46:03;;;;;;;27.40;11.23;;;;;;;;;;5006948;28;20037;-74
2022/04/29 13:48:29;;;;;;;35.22;11.82;;;;;;;;;;4998316;28;20508;-75
2022/04/29 13:50:55;;;;;;;25.67;12.70;;;;;;;;;;5003639;28;20096;-75
2022/04/29 13:53:21;;;;;;;26.77;11.95;;;;;;;;;;5003196;28;20065;-79
2022/04/29 13:55:50;;;;;;;23.13;10.35;;;;;;;;;;5009120;28;20077;-78
2022/04/29 13:58:17;;;;;;;28.83;11.68;;;;;;;;;;5007070;28;20115;-78
2022/04/29 14:00:44;;;;;;;27.98;11.27;;;;;;;;;;5020263;28;20093;-78
2022/04/29 14:03:14;;;;;;;29.48;11.05;;;;;;;;;;4991236;28;20041;-78
2022/04/29 14:05:40;;;;;;;27.98;11.10;;;;;;;;;;5003055;28;20038;-77
2022/04/29 14:08:06;;;;;;;41.38;14.45;;;;;;;;;;5003811;28;20518;-78
2022/04/29 14:10:32;;;;;;;32.28;15.10;;;;;;;;;;5003817;28;20061;-76
2022/04/29 14:12:59;;;;;;;31.23;13.27;;;;;;;;;;5008345;28;20058;-74
2022/04/29 14:15:24;;;;;;;28.95;13.05;;;;;;;;;;5006356;28;20080;-75
2022/04/29 14:17:50;;;;;;;30.58;12.93;;;;;;;;;;5008310;28;20033;-76
2022/04/29 14:20:16;;;;;;;38.58;13.40;;;;;;;;;;5005925;28;20515;-75
2022/04/29 14:22:42;;;;;;;42.33;16.35;;;;;;;;;;5003231;28;20048;-79
2022/04/29 14:25:11;;;;;;;30.15;14.85;;;;;;;;;;5004976;28;20164;-79
2022/04/29 14:27:40;;;;;;;32.65;14.68;;;;;;;;;;5020685;28;20561;-79
2022/04/29 14:30:07;;;;;;;30.65;14.07;;;;;;;;;;5005712;28;20037;-79
2022/04/29 14:32:33;;;;;;;32.90;13.70;;;;;;;;;;5007991;28;20029;-77
2022/04/29 14:35:00;;;;;;;39.83;13.25;;;;;;;;;;5001825;28;20069;-78
2022/04/29 14:37:31;;;;;;;41.65;14.75;;;;;;;;;;5001795;28;20033;-78
2022/04/29 14:39:58;;;;;;;34.13;14.18;;;;;;;;;;5015192;28;20030;-78
2022/04/29 14:42:24;;;;;;;30.52;15.13;;;;;;;;;;4990016;28;20029;-78
2022/04/29 14:44:50;;;;;;;40.95;14.57;;;;;;;;;;5008184;28;20507;-78
2022/04/29 14:47:15;;;;;;;29.25;14.45;;;;;;;;;;5004936;28;20056;-77
2022/04/29 14:49:41;;;;;;;46.53;13.80;;;;;;;;;;5019851;28;20029;-78
2022/04/29 14:52:08;;;;;;;44.22;13.18;;;;;;;;;;5006906;28;20034;-79
2022/04/29 14:54:36;;;;;;;32.95;13.85;;;;;;;;;;5004507;28;20573;-78
2022/04/29 14:57:03;;;;;;;27.75;11.98;;;;;;;;;;5020028;28;20447;-78
2022/04/29 14:59:28;;;;;;;33.67;11.93;;;;;;;;;;5021879;28;20041;-77
2022/04/29 15:01:55;;;;;;;41.15;13.57;;;;;;;;;;5006445;28;20029;-77
2022/04/29 15:04:20;;;;;;;34.08;12.07;;;;;;;;;;5023197;28;20026;-77
2022/04/29 15:06:46;;;;;;;27.42;13.30;;;;;;;;;;5022233;28;20037;-79